Ambia, Indiana
Current Conditions -  °F | °C
As of 6:55 PM on Wednesday 26 Nov 2014 (Local Time) from KDNV Reporting Station
Broken Clouds Broken Clouds  
Wind Chill: 22°   Ceiling: 10000
Heat Index: 29°   Visibility: 10mi
Dew Point: 24°   Wind: 7mph
Humidity: 82%   Direction: 40°NE
Pressure: 30.06"   Gusts: NA
Location:  40.49°N, 87.52°W
Report Text: KDNV 262355Z AUTO 04006KT 10SM BKN100 M01/M04 A3006 RMK AO2 T10151042 10000 21025
Loading
Personal Weather Stations






























Interactive Weather Map New forecast layout! Learn more

10-Day Weather Forecast

Advertisements
Track Severe Weather on mobile